Time;durP1;ratioP1;P1;durP2;ratioP2;P2;SDS_P1;SDS_P2;PMS_P1;PMS_P2;Temp;Humidity;BMP_temperature;BMP_pressure;BME280_temperature;BME280_humidity;BME280_pressure;Samples;Min_cycle;Max_cycle;Signal;HPM_P1;HPM_P2
2023/06/15 00:01:22;;;;;;;3.05;2.00;;;21.00;66.00;;;;;;5058196;28;20028;-91
2023/06/15 00:03:48;;;;;;;2.00;1.80;;;20.90;65.70;;;;;;5075998;28;20033;-92
2023/06/15 00:06:17;;;;;;;2.30;1.90;;;20.90;65.70;;;;;;5058021;28;20146;-92
2023/06/15 00:08:46;;;;;;;3.08;2.10;;;20.90;65.60;;;;;;5041554;28;20071;-92
2023/06/15 00:11:20;;;;;;;2.13;1.83;;;20.90;65.50;;;;;;5058131;28;20473;-93
2023/06/15 00:13:46;;;;;;;2.20;2.00;;;20.90;65.50;;;;;;5059307;28;20037;-89
2023/06/15 00:16:14;;;;;;;3.15;2.08;;;20.90;65.40;;;;;;5058274;28;20103;-93
2023/06/15 00:18:40;;;;;;;3.35;1.98;;;20.90;65.30;;;;;;5041674;28;20033;-92
2023/06/15 00:21:08;;;;;;;4.22;2.17;;;20.90;65.30;;;;;;5076104;28;20035;-93
2023/06/15 00:23:34;;;;;;;2.85;2.40;;;20.90;65.30;;;;;;5057787;28;20025;-92
2023/06/15 00:26:00;;;;;;;2.83;2.10;;;20.90;65.20;;;;;;5075980;28;20028;-89
2023/06/15 00:28:28;;;;;;;3.58;2.30;;;20.80;65.10;;;;;;5057723;28;20107;-92
2023/06/15 00:30:56;;;;;;;3.17;2.03;;;20.80;65.30;;;;;;5075784;28;20025;-91
2023/06/15 00:33:24;;;;;;;4.15;2.10;;;20.80;65.30;;;;;;5041250;28;20036;-91
2023/06/15 00:35:50;;;;;;;3.97;2.30;;;20.70;65.40;;;;;;5076410;28;20025;-90
2023/06/15 00:38:24;;;;;;;4.68;2.13;;;20.70;65.60;;;;;;5059587;28;20020;-91
2023/06/15 00:40:53;;;;;;;3.85;2.25;;;20.70;65.70;;;;;;5075025;28;20076;-92
2023/06/15 00:43:20;;;;;;;2.88;2.38;;;20.70;66.00;;;;;;5074915;28;20024;-92
2023/06/15 00:45:46;;;;;;;5.30;2.50;;;20.70;66.20;;;;;;5075501;28;20063;-90
2023/06/15 00:48:15;;;;;;;4.15;2.58;;;20.70;66.30;;;;;;5058654;28;20032;-91
2023/06/15 00:50:49;;;;;;;2.92;2.45;;;20.70;66.40;;;;;;5076270;28;20393;-91
2023/06/15 00:53:14;;;;;;;2.67;2.25;;;20.60;66.50;;;;;;5074833;28;20029;-91
2023/06/15 00:55:43;;;;;;;2.88;2.53;;;20.60;66.60;;;;;;5075507;28;20023;-90
2023/06/15 00:58:09;;;;;;;3.50;2.75;;;20.60;67.00;;;;;;5058851;28;20037;-92
2023/06/15 01:00:37;;;;;;;3.47;2.15;;;20.60;67.20;;;;;;5043246;28;20385;-91
2023/06/15 01:03:19;;;;;;;3.53;2.58;;;20.60;67.50;;;;;;5046094;28;20031;-91
2023/06/15 01:05:52;;;;;;;2.80;2.50;;;20.60;67.80;;;;;;5080758;28;20032;-91
2023/06/15 01:08:20;;;;;;;4.65;2.80;;;20.60;68.00;;;;;;5079324;28;20016;-91
2023/06/15 01:10:53;;;;;;;4.07;2.70;;;20.50;68.60;;;;;;5079583;28;20021;-91
2023/06/15 01:13:20;;;;;;;3.97;2.67;;;20.50;69.00;;;;;;5085990;28;20025;-89
2023/06/15 01:15:52;;;;;;;3.65;2.80;;;20.40;69.20;;;;;;5089356;28;20028;-91
2023/06/15 01:18:24;;;;;;;4.40;2.90;;;20.40;69.60;;;;;;5073425;28;20021;-91
2023/06/15 01:20:56;;;;;;;5.03;2.85;;;20.40;69.80;;;;;;5068143;28;20089;-90
2023/06/15 01:23:50;;;;;;;4.63;2.80;;;20.40;69.80;;;;;;5059396;28;20094;-92
2023/06/15 01:26:20;;;;;;;4.07;2.63;;;20.40;70.00;;;;;;5075623;28;20020;-92
2023/06/15 01:28:50;;;;;;;5.93;2.85;;;20.40;70.30;;;;;;5074539;28;20020;-92
2023/06/15 01:31:23;;;;;;;3.95;2.42;;;20.30;70.40;;;;;;5081008;28;20020;-91
2023/06/15 01:34:00;;;;;;;;;;;;;;;;;;;;;
2023/06/15 01:36:36;;;;;;;3.50;2.80;;;20.30;70.80;;;;;;5084974;28;20525;-91
2023/06/15 01:39:02;;;;;;;3.08;2.78;;;20.30;71.00;;;;;;5082269;28;20033;-93
2023/06/15 01:41:32;;;;;;;4.88;2.70;;;20.20;71.10;;;;;;5082439;28;20041;-92
2023/06/15 01:43:59;;;;;;;3.35;2.80;;;20.20;71.20;;;;;;5065406;28;20037;-92
2023/06/15 01:46:26;;;;;;;5.68;2.90;;;20.20;71.40;;;;;;5079352;28;20067;-92
2023/06/15 01:48:53;;;;;;;4.75;3.03;;;20.20;71.50;;;;;;5078253;28;20033;-92
2023/06/15 01:51:23;;;;;;;5.50;2.92;;;20.20;71.60;;;;;;5062081;28;20398;-92
2023/06/15 01:53:50;;;;;;;5.78;2.70;;;20.20;71.80;;;;;;5080402;28;20041;-93
2023/06/15 01:56:17;;;;;;;3.20;2.90;;;20.10;71.90;;;;;;5081200;28;20021;-92
2023/06/15 01:58:43;;;;;;;4.75;3.03;;;20.10;72.10;;;;;;5082459;28;20020;-91
2023/06/15 02:01:09;;;;;;;4.72;2.70;;;20.10;72.20;;;;;;5078704;28;20374;-91
2023/06/15 02:03:38;;;;;;;5.78;2.78;;;20.10;72.40;;;;;;5046783;28;20037;-92
2023/06/15 02:06:04;;;;;;;5.88;2.72;;;20.00;72.60;;;;;;5080471;28;20023;-91
2023/06/15 02:08:32;;;;;;;4.55;3.17;;;20.00;72.80;;;;;;5063657;28;20024;-92
2023/06/15 02:11:07;;;;;;;4.60;2.88;;;20.00;72.90;;;;;;5062748;28;20021;-89
2023/06/15 02:13:33;;;;;;;3.35;2.70;;;20.00;72.90;;;;;;5061525;28;20028;-92
2023/06/15 02:15:59;;;;;;;3.88;2.88;;;20.00;73.10;;;;;;5077595;28;20025;-89
2023/06/15 02:18:29;;;;;;;4.65;3.00;;;20.00;73.20;;;;;;5078020;28;20024;-92
2023/06/15 02:21:10;;;;;;;3.92;3.10;;;19.90;73.30;;;;;;5078203;28;20036;-92
2023/06/15 02:23:37;;;;;;;3.27;2.93;;;20.00;73.50;;;;;;5081655;28;20508;-92
2023/06/15 02:26:03;;;;;;;3.55;2.60;;;19.90;73.50;;;;;;5081216;28;20269;-91
2023/06/15 02:28:31;;;;;;;4.68;3.10;;;19.90;73.60;;;;;;5078338;28;20084;-92
2023/06/15 02:30:57;;;;;;;4.53;2.97;;;20.00;73.70;;;;;;5078881;28;20105;-92
2023/06/15 02:33:25;;;;;;;4.85;3.20;;;19.90;73.80;;;;;;5078109;28;20063;-92
2023/06/15 02:36:01;;;;;;;;;;;;;;;;;;;;;
2023/06/15 02:38:27;;;;;;;3.60;2.83;;;19.90;74.10;;;;;;5079192;28;20017;-92
2023/06/15 02:40:53;;;;;;;5.68;2.95;;;19.80;74.40;;;;;;5060620;28;20082;-92
2023/06/15 02:43:21;;;;;;;4.07;3.10;;;19.80;74.70;;;;;;5060516;28;20039;-92
2023/06/15 02:45:58;;;;;;;7.53;3.10;;;19.80;74.80;;;;;;5045000;28;20024;-92
2023/06/15 02:48:26;;;;;;;6.05;3.25;;;19.70;74.70;;;;;;5061963;28;20078;-91
2023/06/15 02:50:52;;;;;;;4.28;3.40;;;19.70;74.70;;;;;;5078644;28;20074;-91
2023/06/15 02:53:21;;;;;;;4.75;2.85;;;19.70;75.00;;;;;;5077705;28;20033;-92
2023/06/15 02:55:47;;;;;;;5.80;3.30;;;19.70;75.00;;;;;;5044396;28;20474;-91
2023/06/15 02:58:15;;;;;;;3.15;2.85;;;19.70;75.10;;;;;;5077712;28;20031;-91
2023/06/15 03:00:42;;;;;;;4.80;3.20;;;19.70;75.20;;;;;;5061505;28;20393;-91
2023/06/15 03:03:27;;;;;;;6.10;3.20;;;19.70;75.20;;;;;;5045403;28;20054;-91
2023/06/15 03:06:00;;;;;;;4.75;3.08;;;19.70;75.40;;;;;;5083212;28;20048;-90
2023/06/15 03:15:27;;;;;;;5.55;2.78;;;19.70;75.50;;;;;;5040384;28;20020;-90
2023/06/15 03:18:00;;;;;;;4.68;3.08;;;19.70;75.60;;;;;;5092229;28;20047;-90
2023/06/15 03:20:32;;;;;;;4.15;2.70;;;19.70;75.60;;;;;;5082085;28;20194;-91
2023/06/15 03:22:58;;;;;;;3.70;2.85;;;19.70;75.70;;;;;;5063119;28;20028;-91
2023/06/15 03:25:29;;;;;;;3.63;3.13;;;19.60;75.90;;;;;;5062037;28;20064;-91
2023/06/15 03:27:59;;;;;;;5.47;3.45;;;19.60;76.00;;;;;;5063465;28;20028;-92
2023/06/15 03:30:29;;;;;;;3.33;3.03;;;19.60;76.00;;;;;;5063849;28;20083;-91
2023/06/15 03:32:59;;;;;;;5.70;3.60;;;19.60;76.20;;;;;;5064546;28;20025;-92
2023/06/15 03:35:26;;;;;;;6.25;3.20;;;19.60;76.40;;;;;;5064856;28;20037;-91
2023/06/15 03:37:55;;;;;;;4.57;2.90;;;19.50;76.50;;;;;;5083209;28;20150;-91
2023/06/15 03:40:20;;;;;;;5.90;2.80;;;19.50;76.70;;;;;;5061600;28;20057;-90
2023/06/15 03:42:46;;;;;;;4.93;3.30;;;19.50;76.80;;;;;;5062979;28;20088;-92
2023/06/15 03:45:14;;;;;;;5.55;3.40;;;19.50;76.80;;;;;;5061642;28;20474;-88
2023/06/15 03:47:40;;;;;;;5.55;3.13;;;19.50;76.90;;;;;;5062294;28;20025;-90
2023/06/15 03:50:11;;;;;;;5.72;3.13;;;19.50;77.10;;;;;;5063496;28;20025;-90
2023/06/15 03:52:40;;;;;;;4.20;3.20;;;19.50;77.20;;;;;;5074687;28;20033;-90
2023/06/15 03:55:09;;;;;;;3.90;2.97;;;19.50;77.20;;;;;;5057509;28;20029;-91
2023/06/15 03:57:38;;;;;;;5.38;3.03;;;19.50;77.20;;;;;;5074643;28;20028;-89
2023/06/15 04:00:07;;;;;;;5.13;3.10;;;19.50;77.20;;;;;;5056780;28;20036;-90
2023/06/15 04:02:33;;;;;;;3.47;3.00;;;19.40;77.10;;;;;;5073529;28;20035;-91
2023/06/15 04:05:00;;;;;;;5.68;3.25;;;19.50;77.10;;;;;;5072446;28;20037;-91
2023/06/15 04:07:28;;;;;;;6.40;3.40;;;19.50;77.10;;;;;;5069860;28;20551;-91
2023/06/15 04:10:01;;;;;;;4.07;2.88;;;19.50;77.20;;;;;;5066328;28;20017;-90
2023/06/15 04:12:32;;;;;;;3.40;2.78;;;19.50;77.30;;;;;;5067265;28;20048;-91
2023/06/15 04:15:01;;;;;;;5.22;3.25;;;19.50;77.20;;;;;;5068035;28;20017;-92
2023/06/15 04:17:30;;;;;;;4.65;3.28;;;19.50;77.20;;;;;;5066674;28;20021;-91
2023/06/15 04:19:56;;;;;;;4.32;2.80;;;19.50;77.30;;;;;;5066630;28;20029;-91
2023/06/15 04:22:22;;;;;;;5.13;3.22;;;19.50;77.20;;;;;;5067106;28;20207;-91
2023/06/15 04:24:51;;;;;;;5.22;3.38;;;19.50;77.30;;;;;;5065276;28;20039;-91
2023/06/15 04:27:18;;;;;;;5.03;3.10;;;19.50;77.40;;;;;;5047142;28;20429;-91
2023/06/15 04:29:49;;;;;;;5.80;3.40;;;19.40;77.50;;;;;;5063574;28;20032;-91
2023/06/15 04:32:15;;;;;;;;;;;19.50;77.60;;;;;;5047490;28;20031;-89
2023/06/15 04:34:49;;;;;;;4.97;3.47;;;19.50;77.50;;;;;;5062839;28;19908;-91
2023/06/15 04:37:18;;;;;;;3.75;3.10;;;19.40;77.60;;;;;;5046092;28;20025;-87
2023/06/15 04:39:43;;;;;;;3.95;3.10;;;19.40;77.90;;;;;;5063866;28;20064;-91
2023/06/15 04:42:12;;;;;;;4.57;3.03;;;19.40;78.00;;;;;;5051772;28;20021;-90
2023/06/15 04:44:40;;;;;;;9.15;3.20;;;19.40;78.00;;;;;;5068056;28;20033;-91
2023/06/15 04:47:06;;;;;;;6.32;3.50;;;19.40;78.00;;;;;;5052152;28;20029;-91
2023/06/15 04:49:32;;;;;;;4.85;3.20;;;19.40;77.90;;;;;;5067819;28;20032;-90
2023/06/15 04:51:58;;;;;;;5.95;3.45;;;19.50;77.90;;;;;;5068601;28;20024;-91
2023/06/15 04:54:26;;;;;;;4.95;2.90;;;19.50;77.90;;;;;;5070204;28;20021;-88
2023/06/15 04:57:04;;;;;;;6.85;3.83;;;19.50;77.90;;;;;;5077385;28;20021;-91
2023/06/15 04:59:33;;;;;;;6.47;3.67;;;19.50;77.80;;;;;;5076712;28;20041;-91
2023/06/15 05:01:58;;;;;;;4.57;3.30;;;19.50;77.80;;;;;;5079206;28;20027;-91
2023/06/15 05:04:26;;;;;;;3.97;2.90;;;19.60;77.70;;;;;;5078760;28;20037;-90
2023/06/15 05:06:57;;;;;;;4.95;3.08;;;19.50;77.50;;;;;;5094044;28;20016;-92
2023/06/15 05:09:26;;;;;;;4.95;3.25;;;19.60;77.50;;;;;;5056226;28;20401;-90
2023/06/15 05:11:54;;;;;;;7.75;3.30;;;19.60;77.50;;;;;;5062713;28;20500;-92
2023/06/15 05:14:21;;;;;;;3.90;3.20;;;19.60;77.40;;;;;;5060349;28;20039;-91
2023/06/15 05:16:50;;;;;;;3.95;3.03;;;19.70;77.50;;;;;;5084908;28;20466;-90
2023/06/15 05:19:15;;;;;;;5.32;3.28;;;19.70;77.70;;;;;;5069919;28;20547;-90
2023/06/15 05:21:47;;;;;;;5.05;3.47;;;19.70;77.80;;;;;;5068117;28;20103;-90
2023/06/15 05:24:15;;;;;;;6.25;3.80;;;19.70;77.70;;;;;;5069013;28;20087;-90
2023/06/15 05:26:41;;;;;;;5.78;3.35;;;19.80;77.70;;;;;;5067114;28;20023;-90
2023/06/15 05:29:09;;;;;;;4.60;3.65;;;19.80;77.60;;;;;;5062348;28;20025;-90
2023/06/15 05:31:47;;;;;;;7.47;3.47;;;19.90;77.60;;;;;;5027244;28;20043;-90
2023/06/15 05:34:19;;;;;;;5.15;3.20;;;19.90;77.60;;;;;;5058020;28;20029;-90
2023/06/15 05:36:50;;;;;;;6.00;3.30;;;19.90;77.60;;;;;;5058636;28;20033;-91
2023/06/15 05:39:16;;;;;;;4.35;3.45;;;20.00;77.70;;;;;;5059288;28;20024;-91
2023/06/15 05:42:11;;;;;;;5.82;3.60;;;20.00;77.70;;;;;;5057912;28;20341;-91
2023/06/15 05:44:44;;;;;;;8.25;3.88;;;20.00;77.70;;;;;;5045788;28;20153;-91
2023/06/15 05:47:28;;;;;;;6.10;3.22;;;20.00;77.70;;;;;;5042086;28;20123;-91
2023/06/15 05:50:06;;;;;;;5.95;3.67;;;20.10;77.70;;;;;;5058278;28;20017;-92
2023/06/15 05:52:34;;;;;;;5.50;3.40;;;20.10;77.60;;;;;;5042085;28;20038;-91
2023/06/15 05:55:03;;;;;;;5.80;3.30;;;20.10;77.60;;;;;;5058564;28;20016;-91
2023/06/15 05:57:41;;;;;;;6.07;3.50;;;20.20;77.70;;;;;;5057648;28;20020;-90
2023/06/15 06:00:10;;;;;;;4.10;3.40;;;20.20;77.70;;;;;;5057106;28;20023;-90
2023/06/15 06:02:41;;;;;;;5.53;3.15;;;20.30;77.50;;;;;;5056932;28;20032;-90
2023/06/15 06:05:15;;;;;;;5.63;3.30;;;20.30;77.30;;;;;;5040907;28;20134;-90
2023/06/15 06:08:14;;;;;;;;;;;;;;;;;;;;;
2023/06/15 06:10:57;;;;;;;4.82;3.78;;;20.40;77.20;;;;;;5060133;28;20115;-90
2023/06/15 06:13:29;;;;;;;5.00;4.00;;;20.40;76.90;;;;;;5057454;28;20012;-90
2023/06/15 06:16:05;;;;;;;4.57;3.58;;;20.40;76.60;;;;;;5056828;28;20036;-90
2023/06/15 06:18:39;;;;;;;4.53;3.55;;;20.40;76.40;;;;;;5059530;28;20032;-90
2023/06/15 06:21:08;;;;;;;9.63;3.08;;;20.50;76.20;;;;;;5060512;28;20111;-90
2023/06/15 06:23:34;;;;;;;3.83;3.33;;;20.50;75.90;;;;;;5060095;28;20040;-91
2023/06/15 06:26:10;;;;;;;4.47;3.15;;;20.60;75.80;;;;;;5043191;28;20098;-91
2023/06/15 06:28:39;;;;;;;4.05;3.65;;;20.60;75.60;;;;;;5059939;28;20028;-90
2023/06/15 06:31:08;;;;;;;4.72;3.60;;;20.70;75.50;;;;;;5060010;28;20031;-92
2023/06/15 06:33:39;;;;;;;4.32;3.60;;;20.70;75.40;;;;;;5059999;28;20031;-91
2023/06/15 06:36:19;;;;;;;;;;;;;;;;;;;;;
2023/06/15 06:38:47;;;;;;;4.18;3.25;;;20.80;75.30;;;;;;5078164;28;20438;-90
2023/06/15 06:41:21;;;;;;;8.13;3.70;;;20.90;75.30;;;;;;5060153;28;20504;-90
2023/06/15 06:43:52;;;;;;;5.63;3.30;;;20.90;75.10;;;;;;5060633;28;20449;-90
2023/06/15 06:46:22;;;;;;;3.97;3.03;;;21.00;75.10;;;;;;5060472;28;20021;-90
2023/06/15 06:48:50;;;;;;;6.20;4.18;;;21.10;75.10;;;;;;5028897;28;20462;-90
2023/06/15 06:51:16;;;;;;;7.53;4.40;;;21.10;75.00;;;;;;5044827;28;20031;-90
2023/06/15 06:53:58;;;;;;;;;;;;;;;;;;;;;
2023/06/15 06:56:32;;;;;;;6.72;3.60;;;21.30;74.80;;;;;;5080878;28;20103;-90
2023/06/15 06:59:00;;;;;;;3.95;3.30;;;21.30;74.40;;;;;;5064778;28;20397;-90
2023/06/15 07:01:34;;;;;;;4.63;2.95;;;21.30;74.40;;;;;;5067125;28;20020;-90
2023/06/15 07:04:17;;;;;;;5.28;3.17;;;21.40;74.30;;;;;;5077823;28;20040;-90
2023/06/15 07:06:43;;;;;;;5.18;3.60;;;21.40;74.20;;;;;;5074344;28;20024;-91
2023/06/15 07:09:18;;;;;;;3.97;3.40;;;21.50;74.10;;;;;;5064537;28;20028;-89
2023/06/15 07:11:52;;;;;;;4.15;3.35;;;21.60;73.80;;;;;;5060799;28;20192;-91
2023/06/15 07:14:26;;;;;;;3.92;3.45;;;21.60;73.40;;;;;;5077400;28;20032;-91
2023/06/15 07:16:52;;;;;;;4.95;3.40;;;21.70;73.20;;;;;;5042924;28;20466;-91
2023/06/15 07:19:20;;;;;;;6.75;3.60;;;21.80;73.20;;;;;;5058451;28;20104;-90
2023/06/15 07:21:52;;;;;;;8.13;4.20;;;21.80;73.20;;;;;;5041451;28;20033;-91
2023/06/15 07:24:17;;;;;;;8.82;4.10;;;21.90;73.20;;;;;;5058569;28;20064;-91
2023/06/15 07:26:43;;;;;;;4.95;3.28;;;21.90;73.20;;;;;;5058326;28;20028;-91
2023/06/15 07:29:17;;;;;;;7.10;3.85;;;22.00;73.90;;;;;;5059025;28;20024;-90
2023/06/15 07:31:52;;;;;;;5.63;3.80;;;22.10;73.20;;;;;;5027518;28;20045;-90
2023/06/15 07:34:21;;;;;;;5.00;3.65;;;22.10;73.00;;;;;;5042702;28;20037;-90
2023/06/15 07:36:59;;;;;;;6.45;3.60;;;22.20;73.00;;;;;;5058479;28;20024;-90
2023/06/15 07:39:24;;;;;;;3.88;3.13;;;22.30;73.40;;;;;;5058851;28;20021;-90
2023/06/15 07:41:58;;;;;;;7.30;3.83;;;22.40;72.70;;;;;;5047926;28;20510;-90
2023/06/15 07:44:27;;;;;;;5.25;3.28;;;22.40;72.70;;;;;;5055805;28;20029;-90
2023/06/15 07:46:55;;;;;;;5.43;3.17;;;22.50;72.80;;;;;;5055065;28;20021;-93
2023/06/15 07:49:29;;;;;;;6.28;3.60;;;22.50;73.00;;;;;;5054828;28;20386;-91
2023/06/15 07:51:54;;;;;;;6.97;3.55;;;22.60;72.80;;;;;;5042364;28;20033;-92
2023/06/15 07:54:23;;;;;;;4.22;3.53;;;22.70;72.70;;;;;;5041856;28;20020;-91
2023/06/15 07:56:49;;;;;;;5.47;3.58;;;22.70;72.60;;;;;;5041775;28;20449;-92
2023/06/15 07:59:18;;;;;;;5.63;3.70;;;22.80;72.50;;;;;;5058199;28;20021;-91
2023/06/15 08:01:53;;;;;;;7.50;4.47;;;22.90;72.10;;;;;;5057437;28;20497;-91
2023/06/15 08:04:21;;;;;;;5.30;3.67;;;22.90;71.80;;;;;;5058171;28;20055;-91
2023/06/15 08:06:55;;;;;;;6.10;3.55;;;23.00;71.90;;;;;;5075902;28;20031;-91
2023/06/15 08:09:51;;;;;;;11.73;4.50;;;23.10;71.90;;;;;;5041380;28;20028;-92
2023/06/15 08:12:29;;;;;;;7.95;4.03;;;23.10;71.40;;;;;;5060688;28;20033;-91
2023/06/15 08:15:24;;;;;;;5.38;3.92;;;23.10;71.90;;;;;;5043534;28;20040;-90
2023/06/15 08:18:12;;;;;;;4.53;3.22;;;23.20;71.40;;;;;;5058383;28;20100;-91
2023/06/15 08:23:38;;;;;;;4.63;3.17;;;23.30;71.10;;;;;;5061513;28;20500;-89
2023/06/15 08:26:22;;;;;;;;;;;;;;;;;;;;;
2023/06/15 08:29:01;;;;;;;3.65;3.22;;;23.50;70.80;;;;;;5059238;28;19915;-90
2023/06/15 08:31:40;;;;;;;;;;;;;;;;;;;;;
2023/06/15 08:34:17;;;;;;;4.15;2.85;;;23.60;70.10;;;;;;5076121;28;20111;-89
2023/06/15 08:37:44;;;;;;;5.38;3.40;;;23.70;69.70;;;;;;5043545;28;20051;-90
2023/06/15 08:40:30;;;;;;;;;;;;;;;;;;;;;
2023/06/15 08:43:01;;;;;;;5.43;3.00;;;23.80;67.50;;;;;;5075444;28;20031;-91
2023/06/15 08:45:42;;;;;;;4.75;3.15;;;23.80;67.30;;;;;;5075773;28;20043;-89
2023/06/15 08:48:31;;;;;;;3.95;2.75;;;23.90;66.80;;;;;;5057998;28;20029;-89
2023/06/15 08:51:00;;;;;;;4.45;3.00;;;23.90;67.10;;;;;;5059485;28;20474;-89
2023/06/15 08:53:32;;;;;;;3.58;3.08;;;24.00;66.70;;;;;;5061205;28;20036;-91
2023/06/15 08:56:37;;;;;;;3.15;2.47;;;24.10;66.00;;;;;;5064235;28;20028;-90
2023/06/15 08:59:03;;;;;;;3.15;2.30;;;24.10;66.00;;;;;;5087255;28;20025;-90
2023/06/15 09:02:07;;;;;;;6.18;2.70;;;24.20;66.30;;;;;;5096521;28;20080;-90
2023/06/15 09:04:56;;;;;;;2.80;2.60;;;24.20;66.00;;;;;;5078304;28;20100;-91
2023/06/15 09:07:34;;;;;;;4.40;2.58;;;24.30;65.80;;;;;;5067543;28;20036;-90
2023/06/15 09:10:22;;;;;;;5.43;2.90;;;24.40;65.50;;;;;;5068240;28;20033;-90
2023/06/15 09:12:54;;;;;;;3.53;2.60;;;24.50;64.80;;;;;;5044572;28;20123;-89
2023/06/15 09:15:38;;;;;;;2.83;2.38;;;24.60;64.30;;;;;;5058768;28;20026;-90
2023/06/15 09:18:48;;;;;;;4.85;2.20;;;24.70;63.90;;;;;;5039694;28;20039;-91
2023/06/15 09:21:26;;;;;;;5.00;2.78;;;24.70;64.00;;;;;;5056239;28;20043;-93
2023/06/15 09:24:18;;;;;;;3.97;2.78;;;24.80;63.60;;;;;;5056942;28;20459;-93
2023/06/15 09:27:21;;;;;;;4.45;2.13;;;24.80;63.00;;;;;;5074706;28;20025;-93
2023/06/15 09:30:17;;;;;;;5.13;2.88;;;24.90;62.60;;;;;;5060012;28;20107;-93
2023/06/15 09:32:45;;;;;;;5.07;2.58;;;24.90;61.80;;;;;;5057566;28;20390;-92
2023/06/15 09:35:19;;;;;;;4.65;2.50;;;24.90;61.10;;;;;;5040306;28;20033;-92
2023/06/15 09:37:55;;;;;;;3.78;2.53;;;25.00;60.70;;;;;;5040104;28;20024;-89
2023/06/15 09:40:34;;;;;;;4.30;2.40;;;25.00;60.20;;;;;;5054943;28;20024;-93
2023/06/15 09:43:01;;;;;;;3.65;2.33;;;25.00;59.80;;;;;;5074136;28;20029;-93
2023/06/15 09:45:39;;;;;;;3.03;2.45;;;25.00;59.90;;;;;;5039300;28;20046;-94
2023/06/15 09:48:20;;;;;;;4.00;2.38;;;25.10;60.00;;;;;;5041089;28;20029;-94
2023/06/15 09:51:29;;;;;;;;;;;;;;;;;;;;;
2023/06/15 09:54:09;;;;;;;4.70;2.33;;;25.20;59.80;;;;;;5062103;28;20477;-93
2023/06/15 09:56:50;;;;;;;;;;;;;;;;;;;;;
2023/06/15 10:02:17;;;;;;;2.72;2.15;;;25.50;60.20;;;;;;5063637;28;20028;-95
2023/06/15 10:04:46;;;;;;;7.13;2.63;;;25.60;60.20;;;;;;5060685;28;20083;-93
2023/06/15 10:07:23;;;;;;;3.15;2.15;;;25.60;59.60;;;;;;5059907;28;20028;-94
2023/06/15 10:09:57;;;;;;;3.30;2.50;;;25.70;58.90;;;;;;5059725;28;20037;-92
2023/06/15 10:12:30;;;;;;;4.55;2.30;;;25.70;59.00;;;;;;5042883;28;20090;-93
2023/06/15 10:15:11;;;;;;;3.50;2.40;;;25.80;59.20;;;;;;5060091;28;20090;-93
2023/06/15 10:17:46;;;;;;;;;;;25.90;58.80;;;;;;5059537;28;20440;-93
2023/06/15 10:20:21;;;;;;;2.60;2.08;;;25.90;58.90;;;;;;5059768;28;20580;-91
2023/06/15 10:23:16;;;;;;;3.67;2.42;;;26.00;59.00;;;;;;5059553;28;20029;-94
2023/06/15 10:25:47;;;;;;;3.47;2.85;;;26.10;58.90;;;;;;5045436;28;20041;-94
2023/06/15 10:28:36;;;;;;;3.92;2.30;;;26.10;58.20;;;;;;5077689;28;20524;-94
2023/06/15 10:31:26;;;;;;;3.35;2.17;;;26.20;58.20;;;;;;5052803;28;20036;-95
2023/06/15 10:34:26;;;;;;;3.08;2.15;;;26.30;57.70;;;;;;5061733;28;20397;-96
2023/06/15 10:37:26;;;;;;;3.67;2.10;;;26.40;57.60;;;;;;5060116;28;20123;-94
2023/06/15 10:40:43;;;;;;;4.25;2.30;;;26.40;57.90;;;;;;5062866;28;20082;-95
2023/06/15 10:43:30;;;;;;;5.05;2.60;;;26.50;57.10;;;;;;5044256;28;20044;-95
2023/06/15 10:45:56;;;;;;;3.55;2.28;;;26.50;56.60;;;;;;5060164;28;20046;-95
2023/06/15 10:49:20;;;;;;;3.50;2.30;;;26.50;56.70;;;;;;5081085;28;20033;-94
2023/06/15 10:51:34;;;;;;;3.80;2.40;;;26.50;56.60;;;;;;5066859;28;20115;-95
2023/06/15 10:54:09;;;;;;;3.70;2.60;;;26.50;56.10;;;;;;5061452;28;20036;-95
2023/06/15 10:56:47;;;;;;;3.05;2.60;;;26.50;56.00;;;;;;5060895;28;20111;-94
2023/06/15 10:59:15;;;;;;;3.28;2.50;;;26.50;55.60;;;;;;5060449;28;20016;-95
2023/06/15 11:02:04;;;;;;;3.67;2.33;;;26.40;56.10;;;;;;5061035;28;20115;-96
2023/06/15 11:04:34;;;;;;;5.72;2.50;;;26.50;55.90;;;;;;5080834;28;20031;-96
2023/06/15 11:07:06;;;;;;;3.58;2.50;;;26.50;55.20;;;;;;5064674;28;20025;-90
2023/06/15 11:09:45;;;;;;;;;;;;;;;;;;;;;
2023/06/15 11:12:36;;;;;;;4.53;2.60;;;26.60;54.90;;;;;;5097634;28;20037;-96
2023/06/15 11:15:06;;;;;;;3.97;2.40;;;26.60;54.90;;;;;;5060640;28;20037;-94
2023/06/15 11:17:55;;;;;;;3.30;2.58;;;26.70;55.00;;;;;;5087407;28;20028;-96
2023/06/15 11:20:42;;;;;;;4.00;2.40;;;26.80;55.10;;;;;;5083193;28;20147;-95
2023/06/15 11:23:27;;;;;;;3.60;2.35;;;26.80;55.20;;;;;;5065252;28;20074;-95
2023/06/15 11:25:57;;;;;;;6.30;2.63;;;26.80;55.00;;;;;;5060676;28;20032;-96
2023/06/15 11:28:34;;;;;;;3.80;2.40;;;26.80;55.00;;;;;;5059933;28;20036;-95
2023/06/15 11:31:16;;;;;;;3.65;2.33;;;26.90;55.00;;;;;;5045829;28;20544;-95
2023/06/15 11:33:49;;;;;;;2.33;2.03;;;26.90;54.50;;;;;;5059631;28;20032;-96
2023/06/15 11:36:15;;;;;;;4.35;2.30;;;26.90;54.90;;;;;;5059202;28;20033;-96
2023/06/15 11:38:54;;;;;;;3.58;2.22;;;26.90;55.00;;;;;;5059383;28;20127;-96
2023/06/15 11:41:33;;;;;;;2.85;2.05;;;27.00;55.30;;;;;;5058687;28;20044;-95
2023/06/15 11:44:01;;;;;;;3.15;2.33;;;27.10;55.40;;;;;;5044057;28;20048;-94
2023/06/15 11:46:32;;;;;;;3.05;2.00;;;27.20;55.00;;;;;;5060420;28;20028;-96
2023/06/15 11:49:01;;;;;;;4.38;2.22;;;27.20;55.10;;;;;;5059826;28;20016;-96
2023/06/15 11:51:46;;;;;;;3.03;2.45;;;27.20;54.80;;;;;;5059703;28;20037;-95
2023/06/15 11:54:30;;;;;;;2.65;2.20;;;27.30;55.00;;;;;;5059276;28;20043;-96
2023/06/15 11:56:58;;;;;;;3.40;2.45;;;27.30;54.80;;;;;;5059232;28;20025;-96
2023/06/15 11:59:33;;;;;;;3.60;2.08;;;27.20;54.50;;;;;;5042311;28;20477;-96
2023/06/15 12:02:12;;;;;;;;;;;;;;;;;;;;;
2023/06/15 12:04:55;;;;;;;7.25;2.58;;;27.20;54.10;;;;;;5076509;28;20032;-95
2023/06/15 12:07:34;;;;;;;4.43;2.65;;;27.10;53.10;;;;;;5076103;28;20017;-95
2023/06/15 12:10:30;;;;;;;2.75;2.10;;;27.10;52.60;;;;;;5043755;28;20028;-95
2023/06/15 12:13:00;;;;;;;3.78;2.20;;;27.00;53.10;;;;;;5031517;28;20096;-96
2023/06/15 12:16:03;;;;;;;3.22;2.20;;;27.10;53.30;;;;;;5075306;28;20466;-96
2023/06/15 12:19:18;;;;;;;2.95;2.35;;;27.10;52.80;;;;;;5068389;28;20060;-95
2023/06/15 12:21:54;;;;;;;3.35;2.33;;;27.10;52.70;;;;;;5046829;28;20029;-96
2023/06/15 12:24:23;;;;;;;2.60;2.40;;;27.10;51.70;;;;;;5057779;28;20036;-96
2023/06/15 12:27:02;;;;;;;4.05;2.30;;;27.10;52.00;;;;;;5041472;28;20488;-96
2023/06/15 12:29:36;;;;;;;3.00;2.13;;;27.20;52.10;;;;;;5057513;28;20287;-95
2023/06/15 12:32:13;;;;;;;3.08;2.22;;;27.20;52.30;;;;;;5057629;28;20626;-93
2023/06/15 12:35:12;;;;;;;3.22;2.30;;;27.10;52.40;;;;;;5059391;28;20430;-95
2023/06/15 12:41:01;;;;;;;3.58;2.13;;;27.00;52.40;;;;;;5052878;28;20056;-96
2023/06/15 12:43:49;;;;;;;3.90;2.15;;;27.00;52.60;;;;;;5059067;28;20044;-96
2023/06/15 12:46:22;;;;;;;4.15;2.30;;;27.00;52.80;;;;;;5042143;28;20082;-94
2023/06/15 12:48:51;;;;;;;3.03;2.15;;;27.00;52.10;;;;;;5058166;28;20029;-95
2023/06/15 12:51:17;;;;;;;4.13;2.47;;;27.00;51.80;;;;;;5057501;28;20020;-94
2023/06/15 12:53:54;;;;;;;2.30;2.05;;;27.10;51.80;;;;;;5057700;28;20397;-96
2023/06/15 12:56:22;;;;;;;3.35;2.22;;;27.20;51.70;;;;;;5058622;28;20465;-95
2023/06/15 12:58:48;;;;;;;2.10;1.90;;;27.30;51.80;;;;;;5041556;28;20466;-94
2023/06/15 13:01:23;;;;;;;2.17;1.80;;;27.30;51.40;;;;;;5057983;28;20035;-94
2023/06/15 13:03:54;;;;;;;2.92;1.90;;;27.40;50.70;;;;;;5058523;28;20029;-95
2023/06/15 13:07:28;;;;;;;;;;;;;;;;;;;;;
2023/06/15 13:10:20;;;;;;;;;;;;;;;;;;;;;
2023/06/15 13:12:54;;;;;;;2.70;2.15;;;27.50;50.80;;;;;;5077681;28;20115;-95
2023/06/15 13:15:25;;;;;;;2.90;2.20;;;27.50;50.70;;;;;;5062811;28;20036;-94
2023/06/15 13:17:54;;;;;;;2.97;2.10;;;27.50;50.60;;;;;;5089866;28;20028;-96
2023/06/15 13:23:34;;;;;;;2.50;2.05;;;27.40;51.00;;;;;;4993295;28;20030;-94
2023/06/15 13:29:26;;;;;;;2.75;2.30;;;27.30;50.40;;;;;;5082785;28;20036;-95
2023/06/15 13:32:24;;;;;;;2.90;2.20;;;27.30;50.20;;;;;;5070348;28;20032;-94
2023/06/15 13:34:57;;;;;;;2.38;2.17;;;27.20;50.10;;;;;;5067058;28;20056;-95
2023/06/15 13:37:31;;;;;;;3.50;2.10;;;27.20;50.50;;;;;;5032326;28;20042;-95
2023/06/15 13:40:35;;;;;;;3.40;2.20;;;27.30;50.60;;;;;;5065442;28;20029;-95
2023/06/15 13:43:20;;;;;;;2.53;1.90;;;27.20;50.20;;;;;;5054780;28;20041;-95
2023/06/15 13:46:00;;;;;;;3.10;2.08;;;27.30;50.30;;;;;;5047765;28;20102;-94
2023/06/15 13:51:40;;;;;;;5.40;2.20;;;27.40;50.50;;;;;;5035586;28;20353;-94
2023/06/15 13:54:08;;;;;;;2.65;2.15;;;27.30;49.40;;;;;;5063864;28;20060;-93
2023/06/15 13:56:39;;;;;;;3.53;2.47;;;27.30;49.50;;;;;;5063286;28;20031;-95
2023/06/15 13:59:11;;;;;;;2.53;2.30;;;27.30;49.30;;;;;;5047100;28;20055;-95
2023/06/15 14:01:50;;;;;;;2.67;2.47;;;27.30;49.00;;;;;;5047259;28;20020;-95
2023/06/15 14:04:26;;;;;;;4.73;2.40;;;27.20;48.30;;;;;;5066386;28;20024;-96
2023/06/15 14:06:55;;;;;;;4.47;2.50;;;27.20;48.30;;;;;;5082870;28;20031;-96